首页
METAR-TAF:

METAR-TAF

机场 :

雷諾薩, 墨西哥

纬度: 26-01N, 经度: 098-14W, 海拔: 39米

当前天气观测

该预报发布于1小时和21分钟前的22:40 UTC
风速6节,风向南转西南
温度 34°C
湿度 44%
气压 1015 hPa
能見度: 9.7公里
阴天层高于22000英尺

METAR: MMRX 152240Z 21006KT 6SM OVC220 34/20 A2996 RMK 8/007 HZY

时间: 19:01 (00:01 UTC)

预报

该预报发布于6小时和55分钟前的17:06 UTC
预报有效从15日的 18点(UTC)到 16日的 18点(UTC)
风速15节,风向东南
能見度: 10公里
散云层高于2000英尺
散云层高于10000英尺
成为
从 15日的 22点(UTC)到 15日的 23点(UTC)
多云层高于2000英尺
从 16日的 0300点(UTC)
风速10节,风向南转南东
能見度: 10公里
散云层高于2000英尺
短暂存在
从 16日的 11点(UTC)到 16日的 14点(UTC)
能見度: 6.4公里
多云层高于2000英尺
轻雾, 霾,

TAF: MMRX 151706Z 1518/1618 13015KT P6SM SCT020 SCT100 BECMG 1522/1523 BKN020 FM160300 15010KT P6SM SCT020 TEMPO 1611/1614 4SM BR HZ BKN020

超过4000个机场的气象观测和天气预报(METAR&TAF报告)。

可查询的气象台以黄色和红色小点在地图上表示。

将鼠标移到小点上方,可查看气象台名称。

然后点击查看天气观测和预报。

如需切换地图:点击带黑十字的绿色按钮放大地图;点击带横线的绿色按钮缩小地图;或者点击绿色箭头查看邻近地区的地图。


METAR-TAF: